sensor_id;sensor_type;location;lat;lon;timestamp;P1;durP1;ratioP1;P2;durP2;ratioP2
26574;SDS011;67165;50.256;10.978;2023-05-29T00:01:32;9.32;;;4.70;;
26574;SDS011;67165;50.256;10.978;2023-05-29T00:03:58;13.48;;;6.60;;
26574;SDS011;67165;50.256;10.978;2023-05-29T00:06:24;14.48;;;8.95;;
26574;SDS011;67165;50.256;10.978;2023-05-29T00:08:49;12.75;;;6.55;;
26574;SDS011;67165;50.256;10.978;2023-05-29T00:11:15;12.07;;;6.10;;
26574;SDS011;67165;50.256;10.978;2023-05-29T00:13:41;12.10;;;6.75;;
26574;SDS011;67165;50.256;10.978;2023-05-29T00:16:07;18.58;;;8.70;;
26574;SDS011;67165;50.256;10.978;2023-05-29T00:18:34;31.95;;;16.77;;
26574;SDS011;67165;50.256;10.978;2023-05-29T00:21:00;101.55;;;45.53;;
26574;SDS011;67165;50.256;10.978;2023-05-29T00:23:26;81.72;;;38.42;;
26574;SDS011;67165;50.256;10.978;2023-05-29T00:25:52;87.15;;;41.20;;
26574;SDS011;67165;50.256;10.978;2023-05-29T00:28:18;103.53;;;47.30;;
26574;SDS011;67165;50.256;10.978;2023-05-29T00:30:43;70.28;;;31.35;;
26574;SDS011;67165;50.256;10.978;2023-05-29T00:33:09;58.47;;;27.63;;
26574;SDS011;67165;50.256;10.978;2023-05-29T00:35:35;44.33;;;21.25;;
26574;SDS011;67165;50.256;10.978;2023-05-29T00:38:00;28.73;;;14.77;;
26574;SDS011;67165;50.256;10.978;2023-05-29T00:40:26;24.05;;;11.63;;
26574;SDS011;67165;50.256;10.978;2023-05-29T00:42:52;15.73;;;8.13;;
26574;SDS011;67165;50.256;10.978;2023-05-29T00:45:18;14.98;;;7.95;;
26574;SDS011;67165;50.256;10.978;2023-05-29T00:47:44;12.40;;;6.65;;
26574;SDS011;67165;50.256;10.978;2023-05-29T00:50:10;11.88;;;5.75;;
26574;SDS011;67165;50.256;10.978;2023-05-29T00:52:38;9.88;;;5.88;;
26574;SDS011;67165;50.256;10.978;2023-05-29T00:55:06;11.57;;;5.30;;
26574;SDS011;67165;50.256;10.978;2023-05-29T00:57:34;11.18;;;5.30;;
26574;SDS011;67165;50.256;10.978;2023-05-29T01:00:01;11.27;;;5.28;;
26574;SDS011;67165;50.256;10.978;2023-05-29T01:02:31;11.68;;;5.60;;
26574;SDS011;67165;50.256;10.978;2023-05-29T01:04:56;10.30;;;5.30;;
26574;SDS011;67165;50.256;10.978;2023-05-29T01:07:23;13.57;;;5.50;;
26574;SDS011;67165;50.256;10.978;2023-05-29T01:09:48;11.32;;;5.68;;
26574;SDS011;67165;50.256;10.978;2023-05-29T01:28:27;10.00;;;5.00;;
26574;SDS011;67165;50.256;10.978;2023-05-29T01:30:58;8.52;;;4.60;;
26574;SDS011;67165;50.256;10.978;2023-05-29T01:33:26;8.27;;;4.65;;
26574;SDS011;67165;50.256;10.978;2023-05-29T01:35:52;9.05;;;4.50;;
26574;SDS011;67165;50.256;10.978;2023-05-29T01:38:18;9.68;;;4.88;;
26574;SDS011;67165;50.256;10.978;2023-05-29T01:40:44;9.38;;;4.80;;
26574;SDS011;67165;50.256;10.978;2023-05-29T01:43:10;8.57;;;4.60;;
26574;SDS011;67165;50.256;10.978;2023-05-29T01:45:37;10.27;;;4.50;;
26574;SDS011;67165;50.256;10.978;2023-05-29T01:48:03;7.10;;;4.47;;
26574;SDS011;67165;50.256;10.978;2023-05-29T01:50:30;7.20;;;4.00;;
26574;SDS011;67165;50.256;10.978;2023-05-29T01:52:56;9.90;;;4.10;;
26574;SDS011;67165;50.256;10.978;2023-05-29T01:55:21;7.70;;;4.15;;
26574;SDS011;67165;50.256;10.978;2023-05-29T01:57:47;9.13;;;3.58;;
26574;SDS011;67165;50.256;10.978;2023-05-29T02:00:14;9.60;;;4.15;;
26574;SDS011;67165;50.256;10.978;2023-05-29T02:02:42;10.18;;;4.05;;
26574;SDS011;67165;50.256;10.978;2023-05-29T02:05:08;6.22;;;3.95;;
26574;SDS011;67165;50.256;10.978;2023-05-29T02:07:37;7.30;;;4.00;;
26574;SDS011;67165;50.256;10.978;2023-05-29T02:10:06;7.45;;;4.38;;
26574;SDS011;67165;50.256;10.978;2023-05-29T02:12:32;10.00;;;4.10;;
26574;SDS011;67165;50.256;10.978;2023-05-29T02:14:57;7.40;;;4.32;;
26574;SDS011;67165;50.256;10.978;2023-05-29T02:17:23;7.15;;;4.25;;
26574;SDS011;67165;50.256;10.978;2023-05-29T02:19:49;6.47;;;4.05;;
26574;SDS011;67165;50.256;10.978;2023-05-29T02:22:16;8.45;;;4.07;;
26574;SDS011;67165;50.256;10.978;2023-05-29T02:24:42;8.52;;;4.25;;
26574;SDS011;67165;50.256;10.978;2023-05-29T02:27:08;7.05;;;4.03;;
26574;SDS011;67165;50.256;10.978;2023-05-29T02:29:34;9.38;;;4.35;;
26574;SDS011;67165;50.256;10.978;2023-05-29T02:32:00;6.95;;;3.80;;
26574;SDS011;67165;50.256;10.978;2023-05-29T02:34:25;6.43;;;4.05;;
26574;SDS011;67165;50.256;10.978;2023-05-29T02:36:51;7.75;;;4.28;;
26574;SDS011;67165;50.256;10.978;2023-05-29T02:39:17;8.18;;;4.03;;
26574;SDS011;67165;50.256;10.978;2023-05-29T02:41:44;8.10;;;4.03;;
26574;SDS011;67165;50.256;10.978;2023-05-29T02:44:09;9.48;;;4.38;;
26574;SDS011;67165;50.256;10.978;2023-05-29T02:46:35;6.65;;;4.15;;
26574;SDS011;67165;50.256;10.978;2023-05-29T02:49:01;10.13;;;3.90;;
26574;SDS011;67165;50.256;10.978;2023-05-29T02:51:26;7.57;;;4.30;;
26574;SDS011;67165;50.256;10.978;2023-05-29T02:53:52;8.27;;;4.10;;
26574;SDS011;67165;50.256;10.978;2023-05-29T02:56:18;12.60;;;4.22;;
26574;SDS011;67165;50.256;10.978;2023-05-29T02:58:48;7.32;;;3.95;;
26574;SDS011;67165;50.256;10.978;2023-05-29T03:01:17;10.93;;;4.60;;
26574;SDS011;67165;50.256;10.978;2023-05-29T03:03:43;8.43;;;4.60;;
26574;SDS011;67165;50.256;10.978;2023-05-29T03:06:09;7.72;;;4.05;;
26574;SDS011;67165;50.256;10.978;2023-05-29T03:08:37;6.95;;;4.18;;
26574;SDS011;67165;50.256;10.978;2023-05-29T03:11:08;7.93;;;3.80;;
26574;SDS011;67165;50.256;10.978;2023-05-29T03:13:37;8.57;;;4.32;;
26574;SDS011;67165;50.256;10.978;2023-05-29T03:16:03;7.93;;;4.30;;
26574;SDS011;67165;50.256;10.978;2023-05-29T03:18:29;8.68;;;4.60;;
26574;SDS011;67165;50.256;10.978;2023-05-29T03:20:55;7.85;;;4.30;;
26574;SDS011;67165;50.256;10.978;2023-05-29T03:23:21;7.68;;;4.47;;
26574;SDS011;67165;50.256;10.978;2023-05-29T03:25:47;8.38;;;4.30;;
26574;SDS011;67165;50.256;10.978;2023-05-29T03:28:13;7.97;;;4.43;;
26574;SDS011;67165;50.256;10.978;2023-05-29T03:30:38;7.63;;;5.00;;
26574;SDS011;67165;50.256;10.978;2023-05-29T03:33:04;7.57;;;4.78;;
26574;SDS011;67165;50.256;10.978;2023-05-29T03:35:30;6.30;;;4.18;;
26574;SDS011;67165;50.256;10.978;2023-05-29T03:37:56;10.10;;;4.90;;
26574;SDS011;67165;50.256;10.978;2023-05-29T03:40:22;9.30;;;5.18;;
26574;SDS011;67165;50.256;10.978;2023-05-29T03:42:47;7.90;;;4.80;;
26574;SDS011;67165;50.256;10.978;2023-05-29T03:45:13;11.60;;;5.60;;
26574;SDS011;67165;50.256;10.978;2023-05-29T03:47:39;10.68;;;5.28;;
26574;SDS011;67165;50.256;10.978;2023-05-29T03:50:05;6.47;;;4.13;;
26574;SDS011;67165;50.256;10.978;2023-05-29T03:52:31;8.05;;;4.97;;
26574;SDS011;67165;50.256;10.978;2023-05-29T03:54:57;10.45;;;4.80;;
26574;SDS011;67165;50.256;10.978;2023-05-29T03:57:22;7.22;;;4.80;;
26574;SDS011;67165;50.256;10.978;2023-05-29T03:59:48;7.97;;;4.97;;
26574;SDS011;67165;50.256;10.978;2023-05-29T04:02:14;8.63;;;4.60;;
26574;SDS011;67165;50.256;10.978;2023-05-29T04:04:39;9.40;;;4.88;;
26574;SDS011;67165;50.256;10.978;2023-05-29T04:07:05;8.30;;;5.10;;
26574;SDS011;67165;50.256;10.978;2023-05-29T04:09:32;10.77;;;4.72;;
26574;SDS011;67165;50.256;10.978;2023-05-29T04:11:59;8.63;;;5.03;;
26574;SDS011;67165;50.256;10.978;2023-05-29T04:14:27;8.15;;;4.90;;
26574;SDS011;67165;50.256;10.978;2023-05-29T04:16:53;7.05;;;4.40;;
26574;SDS011;67165;50.256;10.978;2023-05-29T04:19:19;8.27;;;4.40;;
26574;SDS011;67165;50.256;10.978;2023-05-29T04:21:46;8.13;;;4.40;;
26574;SDS011;67165;50.256;10.978;2023-05-29T04:24:13;7.32;;;4.20;;
26574;SDS011;67165;50.256;10.978;2023-05-29T04:26:39;9.88;;;4.78;;
26574;SDS011;67165;50.256;10.978;2023-05-29T04:29:06;7.45;;;4.32;;
26574;SDS011;67165;50.256;10.978;2023-05-29T04:31:37;7.93;;;4.50;;
26574;SDS011;67165;50.256;10.978;2023-05-29T04:34:06;7.22;;;4.07;;
26574;SDS011;67165;50.256;10.978;2023-05-29T04:36:32;7.32;;;3.97;;
26574;SDS011;67165;50.256;10.978;2023-05-29T04:39:03;7.57;;;4.40;;
26574;SDS011;67165;50.256;10.978;2023-05-29T04:41:30;7.43;;;4.03;;
26574;SDS011;67165;50.256;10.978;2023-05-29T04:43:56;7.55;;;4.20;;
26574;SDS011;67165;50.256;10.978;2023-05-29T04:46:22;9.88;;;4.30;;
26574;SDS011;67165;50.256;10.978;2023-05-29T04:48:49;8.07;;;4.10;;
26574;SDS011;67165;50.256;10.978;2023-05-29T04:51:18;8.85;;;4.05;;
26574;SDS011;67165;50.256;10.978;2023-05-29T04:53:47;5.70;;;4.10;;
26574;SDS011;67165;50.256;10.978;2023-05-29T04:56:13;6.28;;;4.05;;
26574;SDS011;67165;50.256;10.978;2023-05-29T04:58:40;9.45;;;4.18;;
26574;SDS011;67165;50.256;10.978;2023-05-29T05:01:06;6.28;;;3.70;;
26574;SDS011;67165;50.256;10.978;2023-05-29T05:03:33;5.05;;;3.80;;
26574;SDS011;67165;50.256;10.978;2023-05-29T05:06:02;6.78;;;4.05;;
26574;SDS011;67165;50.256;10.978;2023-05-29T05:08:29;7.55;;;3.85;;
26574;SDS011;67165;50.256;10.978;2023-05-29T05:10:55;7.93;;;4.03;;
26574;SDS011;67165;50.256;10.978;2023-05-29T05:13:21;6.18;;;4.00;;
26574;SDS011;67165;50.256;10.978;2023-05-29T05:15:47;6.07;;;3.80;;
26574;SDS011;67165;50.256;10.978;2023-05-29T05:18:13;6.30;;;3.90;;
26574;SDS011;67165;50.256;10.978;2023-05-29T05:20:38;7.90;;;4.30;;
26574;SDS011;67165;50.256;10.978;2023-05-29T05:23:04;5.78;;;4.00;;
26574;SDS011;67165;50.256;10.978;2023-05-29T05:25:30;5.18;;;3.72;;
26574;SDS011;67165;50.256;10.978;2023-05-29T05:27:56;4.40;;;3.72;;
26574;SDS011;67165;50.256;10.978;2023-05-29T05:30:21;6.13;;;3.65;;
26574;SDS011;67165;50.256;10.978;2023-05-29T05:32:47;4.40;;;3.55;;
26574;SDS011;67165;50.256;10.978;2023-05-29T05:35:13;7.90;;;3.72;;
26574;SDS011;67165;50.256;10.978;2023-05-29T05:37:38;7.20;;;4.10;;
26574;SDS011;67165;50.256;10.978;2023-05-29T05:40:05;5.50;;;3.58;;
26574;SDS011;67165;50.256;10.978;2023-05-29T05:42:32;9.38;;;3.90;;
26574;SDS011;67165;50.256;10.978;2023-05-29T05:44:58;5.03;;;3.58;;
26574;SDS011;67165;50.256;10.978;2023-05-29T05:47:23;4.78;;;3.67;;
26574;SDS011;67165;50.256;10.978;2023-05-29T05:49:49;7.25;;;3.75;;
26574;SDS011;67165;50.256;10.978;2023-05-29T05:52:16;6.30;;;3.60;;
26574;SDS011;67165;50.256;10.978;2023-05-29T05:54:42;5.95;;;3.70;;
26574;SDS011;67165;50.256;10.978;2023-05-29T05:57:08;7.13;;;3.67;;
26574;SDS011;67165;50.256;10.978;2023-05-29T05:59:34;4.45;;;3.28;;
26574;SDS011;67165;50.256;10.978;2023-05-29T06:02:00;5.88;;;3.47;;
26574;SDS011;67165;50.256;10.978;2023-05-29T06:04:25;7.78;;;3.63;;
26574;SDS011;67165;50.256;10.978;2023-05-29T06:06:51;7.35;;;3.95;;
26574;SDS011;67165;50.256;10.978;2023-05-29T06:09:16;5.88;;;3.17;;
26574;SDS011;67165;50.256;10.978;2023-05-29T06:11:42;4.65;;;3.60;;
26574;SDS011;67165;50.256;10.978;2023-05-29T06:14:08;6.13;;;3.85;;
26574;SDS011;67165;50.256;10.978;2023-05-29T06:16:34;6.13;;;3.72;;
26574;SDS011;67165;50.256;10.978;2023-05-29T06:18:59;7.32;;;3.72;;
26574;SDS011;67165;50.256;10.978;2023-05-29T06:21:25;6.18;;;3.78;;
26574;SDS011;67165;50.256;10.978;2023-05-29T06:23:51;5.55;;;3.55;;
26574;SDS011;67165;50.256;10.978;2023-05-29T06:26:17;7.57;;;3.50;;
26574;SDS011;67165;50.256;10.978;2023-05-29T06:28:43;5.85;;;3.20;;
26574;SDS011;67165;50.256;10.978;2023-05-29T06:31:08;6.07;;;3.78;;
26574;SDS011;67165;50.256;10.978;2023-05-29T06:33:35;8.73;;;3.95;;
26574;SDS011;67165;50.256;10.978;2023-05-29T06:36:01;8.05;;;3.33;;
26574;SDS011;67165;50.256;10.978;2023-05-29T06:38:30;7.32;;;3.85;;
26574;SDS011;67165;50.256;10.978;2023-05-29T06:40:56;6.93;;;3.42;;
26574;SDS011;67165;50.256;10.978;2023-05-29T06:43:21;6.57;;;3.72;;
26574;SDS011;67165;50.256;10.978;2023-05-29T06:45:47;5.57;;;3.53;;
26574;SDS011;67165;50.256;10.978;2023-05-29T06:48:13;6.00;;;3.53;;
26574;SDS011;67165;50.256;10.978;2023-05-29T06:50:38;5.95;;;3.33;;
26574;SDS011;67165;50.256;10.978;2023-05-29T06:53:04;4.40;;;3.30;;
26574;SDS011;67165;50.256;10.978;2023-05-29T06:55:30;6.05;;;3.33;;
26574;SDS011;67165;50.256;10.978;2023-05-29T06:57:56;6.95;;;3.35;;
26574;SDS011;67165;50.256;10.978;2023-05-29T07:00:21;5.30;;;3.35;;
26574;SDS011;67165;50.256;10.978;2023-05-29T07:02:48;9.75;;;3.72;;
26574;SDS011;67165;50.256;10.978;2023-05-29T07:05:13;6.20;;;3.33;;
26574;SDS011;67165;50.256;10.978;2023-05-29T07:07:39;6.95;;;3.60;;
26574;SDS011;67165;50.256;10.978;2023-05-29T07:10:05;5.45;;;3.20;;
26574;SDS011;67165;50.256;10.978;2023-05-29T07:12:31;5.20;;;2.90;;
26574;SDS011;67165;50.256;10.978;2023-05-29T07:14:56;4.35;;;3.03;;
26574;SDS011;67165;50.256;10.978;2023-05-29T07:17:22;6.05;;;3.17;;
26574;SDS011;67165;50.256;10.978;2023-05-29T07:19:48;4.80;;;3.03;;
26574;SDS011;67165;50.256;10.978;2023-05-29T07:22:14;5.60;;;3.35;;
26574;SDS011;67165;50.256;10.978;2023-05-29T07:24:40;6.35;;;3.60;;
26574;SDS011;67165;50.256;10.978;2023-05-29T07:27:06;4.15;;;3.10;;
26574;SDS011;67165;50.256;10.978;2023-05-29T07:29:32;6.75;;;3.55;;
26574;SDS011;67165;50.256;10.978;2023-05-29T07:31:58;5.38;;;3.30;;
26574;SDS011;67165;50.256;10.978;2023-05-29T07:34:23;5.85;;;3.30;;
26574;SDS011;67165;50.256;10.978;2023-05-29T07:37:22;6.95;;;3.63;;
26574;SDS011;67165;50.256;10.978;2023-05-29T07:39:43;4.13;;;3.10;;
26574;SDS011;67165;50.256;10.978;2023-05-29T07:42:09;7.03;;;3.58;;
26574;SDS011;67165;50.256;10.978;2023-05-29T07:44:35;5.60;;;3.38;;
26574;SDS011;67165;50.256;10.978;2023-05-29T07:47:00;4.93;;;3.35;;
26574;SDS011;67165;50.256;10.978;2023-05-29T07:49:26;6.90;;;3.40;;
26574;SDS011;67165;50.256;10.978;2023-05-29T07:51:52;5.55;;;3.10;;
26574;SDS011;67165;50.256;10.978;2023-05-29T07:54:18;5.35;;;3.10;;
26574;SDS011;67165;50.256;10.978;2023-05-29T07:56:45;5.13;;;3.20;;
26574;SDS011;67165;50.256;10.978;2023-05-29T07:59:11;6.38;;;3.33;;
26574;SDS011;67165;50.256;10.978;2023-05-29T08:01:37;7.78;;;3.42;;
26574;SDS011;67165;50.256;10.978;2023-05-29T08:04:04;8.05;;;3.70;;
26574;SDS011;67165;50.256;10.978;2023-05-29T08:06:30;7.65;;;3.22;;
26574;SDS011;67165;50.256;10.978;2023-05-29T08:08:57;7.60;;;3.40;;
26574;SDS011;67165;50.256;10.978;2023-05-29T08:11:23;7.90;;;3.70;;
26574;SDS011;67165;50.256;10.978;2023-05-29T08:13:49;5.03;;;3.28;;
26574;SDS011;67165;50.256;10.978;2023-05-29T08:16:15;10.32;;;3.60;;
26574;SDS011;67165;50.256;10.978;2023-05-29T08:18:41;6.53;;;3.35;;
26574;SDS011;67165;50.256;10.978;2023-05-29T08:21:07;4.50;;;3.05;;
26574;SDS011;67165;50.256;10.978;2023-05-29T08:23:34;7.10;;;3.40;;
26574;SDS011;67165;50.256;10.978;2023-05-29T08:26:00;9.68;;;3.67;;
26574;SDS011;67165;50.256;10.978;2023-05-29T08:28:27;5.95;;;3.45;;
26574;SDS011;67165;50.256;10.978;2023-05-29T08:30:53;7.80;;;3.33;;
26574;SDS011;67165;50.256;10.978;2023-05-29T08:33:19;6.65;;;3.50;;
26574;SDS011;67165;50.256;10.978;2023-05-29T08:35:44;8.63;;;3.55;;
26574;SDS011;67165;50.256;10.978;2023-05-29T08:38:10;5.15;;;3.30;;
26574;SDS011;67165;50.256;10.978;2023-05-29T08:40:36;6.07;;;3.17;;
26574;SDS011;67165;50.256;10.978;2023-05-29T08:45:29;5.72;;;3.60;;
26574;SDS011;67165;50.256;10.978;2023-05-29T08:47:59;5.50;;;3.38;;
26574;SDS011;67165;50.256;10.978;2023-05-29T08:50:26;5.88;;;3.90;;
26574;SDS011;67165;50.256;10.978;2023-05-29T08:52:52;5.25;;;3.40;;
26574;SDS011;67165;50.256;10.978;2023-05-29T08:55:17;6.55;;;2.92;;
26574;SDS011;67165;50.256;10.978;2023-05-29T08:57:43;5.05;;;3.33;;
26574;SDS011;67165;50.256;10.978;2023-05-29T09:00:11;9.65;;;3.35;;
26574;SDS011;67165;50.256;10.978;2023-05-29T09:02:40;7.57;;;3.63;;
26574;SDS011;67165;50.256;10.978;2023-05-29T09:05:08;7.35;;;3.78;;
26574;SDS011;67165;50.256;10.978;2023-05-29T09:07:35;8.35;;;3.33;;
26574;SDS011;67165;50.256;10.978;2023-05-29T09:10:10;9.48;;;3.65;;
26574;SDS011;67165;50.256;10.978;2023-05-29T09:12:36;5.38;;;3.17;;
26574;SDS011;67165;50.256;10.978;2023-05-29T09:15:02;7.25;;;3.42;;
26574;SDS011;67165;50.256;10.978;2023-05-29T09:17:33;6.35;;;3.20;;
26574;SDS011;67165;50.256;10.978;2023-05-29T09:19:58;5.25;;;3.20;;
26574;SDS011;67165;50.256;10.978;2023-05-29T09:22:25;5.78;;;3.35;;
26574;SDS011;67165;50.256;10.978;2023-05-29T09:24:51;9.18;;;3.80;;
26574;SDS011;67165;50.256;10.978;2023-05-29T09:27:17;5.00;;;3.33;;
26574;SDS011;67165;50.256;10.978;2023-05-29T09:29:44;6.40;;;3.35;;
26574;SDS011;67165;50.256;10.978;2023-05-29T09:32:14;4.88;;;3.15;;
26574;SDS011;67165;50.256;10.978;2023-05-29T09:34:44;5.03;;;3.33;;
26574;SDS011;67165;50.256;10.978;2023-05-29T09:37:10;8.90;;;3.30;;
26574;SDS011;67165;50.256;10.978;2023-05-29T09:39:46;4.78;;;3.22;;
26574;SDS011;67165;50.256;10.978;2023-05-29T09:42:13;7.22;;;3.53;;
26574;SDS011;67165;50.256;10.978;2023-05-29T09:44:40;6.13;;;3.20;;
26574;SDS011;67165;50.256;10.978;2023-05-29T09:47:07;6.68;;;3.13;;
26574;SDS011;67165;50.256;10.978;2023-05-29T09:49:33;8.15;;;2.88;;
26574;SDS011;67165;50.256;10.978;2023-05-29T09:51:59;8.60;;;3.53;;
26574;SDS011;67165;50.256;10.978;2023-05-29T09:54:29;8.20;;;3.60;;
26574;SDS011;67165;50.256;10.978;2023-05-29T09:56:55;7.50;;;3.28;;
26574;SDS011;67165;50.256;10.978;2023-05-29T09:59:23;6.13;;;3.45;;
26574;SDS011;67165;50.256;10.978;2023-05-29T10:01:53;8.88;;;3.45;;
26574;SDS011;67165;50.256;10.978;2023-05-29T10:04:35;5.30;;;3.40;;
26574;SDS011;67165;50.256;10.978;2023-05-29T10:07:09;5.82;;;3.38;;
26574;SDS011;67165;50.256;10.978;2023-05-29T10:09:41;7.07;;;3.75;;
26574;SDS011;67165;50.256;10.978;2023-05-29T10:12:11;4.95;;;3.25;;
26574;SDS011;67165;50.256;10.978;2023-05-29T10:14:38;6.05;;;3.40;;
26574;SDS011;67165;50.256;10.978;2023-05-29T10:17:07;5.05;;;3.30;;
26574;SDS011;67165;50.256;10.978;2023-05-29T10:19:34;6.93;;;3.28;;
26574;SDS011;67165;50.256;10.978;2023-05-29T10:22:03;7.40;;;3.22;;
26574;SDS011;67165;50.256;10.978;2023-05-29T10:24:31;5.43;;;3.05;;
26574;SDS011;67165;50.256;10.978;2023-05-29T10:26:58;6.03;;;3.10;;
26574;SDS011;67165;50.256;10.978;2023-05-29T10:35:39;6.30;;;3.10;;
26574;SDS011;67165;50.256;10.978;2023-05-29T10:37:42;6.53;;;3.50;;
26574;SDS011;67165;50.256;10.978;2023-05-29T10:40:13;4.43;;;3.05;;
26574;SDS011;67165;50.256;10.978;2023-05-29T10:42:48;9.32;;;3.30;;
26574;SDS011;67165;50.256;10.978;2023-05-29T10:50:41;7.13;;;3.20;;
26574;SDS011;67165;50.256;10.978;2023-05-29T10:53:08;10.05;;;3.58;;
26574;SDS011;67165;50.256;10.978;2023-05-29T10:55:38;6.95;;;2.90;;
26574;SDS011;67165;50.256;10.978;2023-05-29T10:58:05;6.82;;;3.30;;
26574;SDS011;67165;50.256;10.978;2023-05-29T11:00:31;4.80;;;3.22;;
26574;SDS011;67165;50.256;10.978;2023-05-29T11:02:58;6.15;;;3.28;;
26574;SDS011;67165;50.256;10.978;2023-05-29T11:05:31;5.15;;;2.97;;
26574;SDS011;67165;50.256;10.978;2023-05-29T11:08:00;5.30;;;3.22;;
26574;SDS011;67165;50.256;10.978;2023-05-29T11:13:07;8.10;;;3.00;;
26574;SDS011;67165;50.256;10.978;2023-05-29T11:15:32;6.63;;;3.38;;
26574;SDS011;67165;50.256;10.978;2023-05-29T11:18:05;5.05;;;3.10;;
26574;SDS011;67165;50.256;10.978;2023-05-29T11:20:47;8.75;;;3.33;;
26574;SDS011;67165;50.256;10.978;2023-05-29T11:23:18;5.93;;;3.38;;
26574;SDS011;67165;50.256;10.978;2023-05-29T11:25:45;4.50;;;3.20;;
26574;SDS011;67165;50.256;10.978;2023-05-29T11:28:12;6.20;;;3.40;;
26574;SDS011;67165;50.256;10.978;2023-05-29T11:30:45;5.80;;;3.17;;
26574;SDS011;67165;50.256;10.978;2023-05-29T11:33:19;6.25;;;3.30;;
26574;SDS011;67165;50.256;10.978;2023-05-29T11:35:54;8.55;;;3.30;;
26574;SDS011;67165;50.256;10.978;2023-05-29T11:38:24;7.00;;;3.47;;
26574;SDS011;67165;50.256;10.978;2023-05-29T11:40:54;5.35;;;3.10;;
26574;SDS011;67165;50.256;10.978;2023-05-29T11:43:21;5.47;;;3.40;;
26574;SDS011;67165;50.256;10.978;2023-05-29T11:45:47;6.40;;;3.33;;
26574;SDS011;67165;50.256;10.978;2023-05-29T11:48:13;8.48;;;3.35;;
26574;SDS011;67165;50.256;10.978;2023-05-29T11:50:38;7.38;;;3.40;;
26574;SDS011;67165;50.256;10.978;2023-05-29T11:53:05;5.63;;;3.30;;
26574;SDS011;67165;50.256;10.978;2023-05-29T11:55:32;6.05;;;3.33;;
26574;SDS011;67165;50.256;10.978;2023-05-29T11:58:01;4.82;;;3.00;;
26574;SDS011;67165;50.256;10.978;2023-05-29T12:00:32;5.80;;;3.30;;
26574;SDS011;67165;50.256;10.978;2023-05-29T12:03:03;7.22;;;3.10;;
26574;SDS011;67165;50.256;10.978;2023-05-29T12:05:43;6.68;;;3.30;;
26574;SDS011;67165;50.256;10.978;2023-05-29T12:08:15;5.95;;;3.30;;
26574;SDS011;67165;50.256;10.978;2023-05-29T12:10:47;7.70;;;3.55;;
26574;SDS011;67165;50.256;10.978;2023-05-29T12:13:13;6.25;;;3.35;;
26574;SDS011;67165;50.256;10.978;2023-05-29T12:15:43;7.07;;;3.20;;
26574;SDS011;67165;50.256;10.978;2023-05-29T12:18:13;4.90;;;3.55;;
26574;SDS011;67165;50.256;10.978;2023-05-29T12:20:39;8.77;;;3.90;;
26574;SDS011;67165;50.256;10.978;2023-05-29T12:23:05;6.10;;;3.13;;
26574;SDS011;67165;50.256;10.978;2023-05-29T12:25:31;5.35;;;3.20;;
26574;SDS011;67165;50.256;10.978;2023-05-29T12:28:01;5.93;;;3.50;;
26574;SDS011;67165;50.256;10.978;2023-05-29T12:30:27;6.95;;;3.67;;
26574;SDS011;67165;50.256;10.978;2023-05-29T12:32:53;7.85;;;3.30;;
26574;SDS011;67165;50.256;10.978;2023-05-29T12:35:20;7.50;;;3.33;;
26574;SDS011;67165;50.256;10.978;2023-05-29T12:40:19;4.90;;;3.13;;
26574;SDS011;67165;50.256;10.978;2023-05-29T12:42:49;6.45;;;3.33;;
26574;SDS011;67165;50.256;10.978;2023-05-29T12:45:19;6.28;;;3.42;;
26574;SDS011;67165;50.256;10.978;2023-05-29T12:47:45;4.30;;;3.22;;
26574;SDS011;67165;50.256;10.978;2023-05-29T12:53:03;9.70;;;3.40;;
26574;SDS011;67165;50.256;10.978;2023-05-29T12:55:33;5.78;;;3.40;;
26574;SDS011;67165;50.256;10.978;2023-05-29T12:58:10;7.25;;;2.90;;
26574;SDS011;67165;50.256;10.978;2023-05-29T13:00:36;6.47;;;3.58;;
26574;SDS011;67165;50.256;10.978;2023-05-29T13:03:04;6.45;;;3.33;;
26574;SDS011;67165;50.256;10.978;2023-05-29T13:05:31;11.18;;;3.90;;
26574;SDS011;67165;50.256;10.978;2023-05-29T13:07:57;6.03;;;3.53;;
26574;SDS011;67165;50.256;10.978;2023-05-29T13:10:23;7.40;;;3.53;;
26574;SDS011;67165;50.256;10.978;2023-05-29T13:12:50;6.10;;;3.20;;
26574;SDS011;67165;50.256;10.978;2023-05-29T13:15:19;5.93;;;3.30;;
26574;SDS011;67165;50.256;10.978;2023-05-29T13:17:47;4.82;;;3.38;;
26574;SDS011;67165;50.256;10.978;2023-05-29T13:20:13;5.25;;;3.65;;
26574;SDS011;67165;50.256;10.978;2023-05-29T13:22:40;4.65;;;3.40;;
26574;SDS011;67165;50.256;10.978;2023-05-29T13:25:07;5.10;;;3.25;;
26574;SDS011;67165;50.256;10.978;2023-05-29T13:27:34;6.68;;;3.45;;
26574;SDS011;67165;50.256;10.978;2023-05-29T13:30:04;4.82;;;3.40;;
26574;SDS011;67165;50.256;10.978;2023-05-29T13:32:30;6.60;;;3.60;;
26574;SDS011;67165;50.256;10.978;2023-05-29T13:34:56;8.10;;;3.13;;
26574;SDS011;67165;50.256;10.978;2023-05-29T13:37:22;6.55;;;3.65;;
26574;SDS011;67165;50.256;10.978;2023-05-29T13:39:48;8.52;;;3.30;;
26574;SDS011;67165;50.256;10.978;2023-05-29T13:42:14;5.40;;;3.40;;
26574;SDS011;67165;50.256;10.978;2023-05-29T13:44:40;8.38;;;3.40;;
26574;SDS011;67165;50.256;10.978;2023-05-29T13:47:06;5.78;;;3.70;;
26574;SDS011;67165;50.256;10.978;2023-05-29T13:49:34;5.00;;;3.45;;
26574;SDS011;67165;50.256;10.978;2023-05-29T13:52:01;13.35;;;3.90;;
26574;SDS011;67165;50.256;10.978;2023-05-29T13:54:27;7.93;;;3.33;;
26574;SDS011;67165;50.256;10.978;2023-05-29T13:56:56;7.22;;;3.58;;
26574;SDS011;67165;50.256;10.978;2023-05-29T13:59:22;7.03;;;3.40;;
26574;SDS011;67165;50.256;10.978;2023-05-29T14:01:49;9.00;;;3.53;;
26574;SDS011;67165;50.256;10.978;2023-05-29T14:04:14;7.68;;;3.72;;
26574;SDS011;67165;50.256;10.978;2023-05-29T14:06:40;5.18;;;3.40;;
26574;SDS011;67165;50.256;10.978;2023-05-29T14:09:06;4.32;;;3.10;;
26574;SDS011;67165;50.256;10.978;2023-05-29T14:11:35;7.32;;;3.70;;
26574;SDS011;67165;50.256;10.978;2023-05-29T14:14:04;6.78;;;3.35;;
26574;SDS011;67165;50.256;10.978;2023-05-29T14:16:30;4.38;;;3.35;;
26574;SDS011;67165;50.256;10.978;2023-05-29T14:18:57;5.10;;;3.50;;
26574;SDS011;67165;50.256;10.978;2023-05-29T14:21:23;7.05;;;3.95;;
26574;SDS011;67165;50.256;10.978;2023-05-29T14:23:49;5.65;;;3.92;;
26574;SDS011;67165;50.256;10.978;2023-05-29T14:26:15;6.22;;;3.45;;
26574;SDS011;67165;50.256;10.978;2023-05-29T14:28:40;5.35;;;3.45;;
26574;SDS011;67165;50.256;10.978;2023-05-29T14:31:06;6.00;;;3.72;;
26574;SDS011;67165;50.256;10.978;2023-05-29T14:33:32;6.22;;;3.30;;
26574;SDS011;67165;50.256;10.978;2023-05-29T14:35:57;4.93;;;3.30;;
26574;SDS011;67165;50.256;10.978;2023-05-29T14:38:23;6.13;;;3.55;;
26574;SDS011;67165;50.256;10.978;2023-05-29T14:40:49;6.60;;;3.85;;
26574;SDS011;67165;50.256;10.978;2023-05-29T14:43:15;8.05;;;3.50;;
26574;SDS011;67165;50.256;10.978;2023-05-29T14:45:41;4.78;;;3.33;;
26574;SDS011;67165;50.256;10.978;2023-05-29T14:48:06;7.13;;;3.50;;
26574;SDS011;67165;50.256;10.978;2023-05-29T14:50:32;7.10;;;3.60;;
26574;SDS011;67165;50.256;10.978;2023-05-29T14:52:58;5.53;;;3.67;;
26574;SDS011;67165;50.256;10.978;2023-05-29T14:55:23;6.80;;;3.47;;
26574;SDS011;67165;50.256;10.978;2023-05-29T14:57:49;6.53;;;3.20;;
26574;SDS011;67165;50.256;10.978;2023-05-29T15:00:15;6.35;;;3.47;;
26574;SDS011;67165;50.256;10.978;2023-05-29T15:02:41;6.57;;;3.30;;
26574;SDS011;67165;50.256;10.978;2023-05-29T15:05:07;6.35;;;3.60;;
26574;SDS011;67165;50.256;10.978;2023-05-29T15:07:33;5.95;;;3.40;;
26574;SDS011;67165;50.256;10.978;2023-05-29T15:09:59;7.28;;;3.78;;